sensor_id;sensor_type;location;lat;lon;timestamp;temperature;humidity
7846;DHT22;3968;51.424;6.788;2023-02-01T00:01:32;6.80;99.90
7846;DHT22;3968;51.424;6.788;2023-02-01T00:03:57;6.80;99.90
7846;DHT22;3968;51.424;6.788;2023-02-01T00:06:23;6.80;99.90
7846;DHT22;3968;51.424;6.788;2023-02-01T00:08:49;6.80;99.90
7846;DHT22;3968;51.424;6.788;2023-02-01T00:11:17;6.80;99.90
7846;DHT22;3968;51.424;6.788;2023-02-01T00:13:42;6.80;99.90
7846;DHT22;3968;51.424;6.788;2023-02-01T00:16:14;6.70;99.90
7846;DHT22;3968;51.424;6.788;2023-02-01T00:18:47;6.70;99.90
7846;DHT22;3968;51.424;6.788;2023-02-01T00:21:15;6.80;99.90
7846;DHT22;3968;51.424;6.788;2023-02-01T00:23:41;6.80;99.90
7846;DHT22;3968;51.424;6.788;2023-02-01T00:26:12;6.80;99.90
7846;DHT22;3968;51.424;6.788;2023-02-01T00:28:39;6.80;99.90
7846;DHT22;3968;51.424;6.788;2023-02-01T00:31:05;6.80;99.90
7846;DHT22;3968;51.424;6.788;2023-02-01T00:33:31;6.90;99.90
7846;DHT22;3968;51.424;6.788;2023-02-01T00:36:02;6.90;99.90
7846;DHT22;3968;51.424;6.788;2023-02-01T00:38:29;6.90;99.90
7846;DHT22;3968;51.424;6.788;2023-02-01T00:41:02;6.90;99.90
7846;DHT22;3968;51.424;6.788;2023-02-01T00:43:28;6.90;99.90
7846;DHT22;3968;51.424;6.788;2023-02-01T00:45:53;7.00;99.90
7846;DHT22;3968;51.424;6.788;2023-02-01T00:48:19;7.00;99.90
7846;DHT22;3968;51.424;6.788;2023-02-01T00:50:45;7.00;99.90
7846;DHT22;3968;51.424;6.788;2023-02-01T00:53:11;7.00;99.90
7846;DHT22;3968;51.424;6.788;2023-02-01T00:55:36;6.90;99.90
7846;DHT22;3968;51.424;6.788;2023-02-01T00:58:03;6.90;99.90
7846;DHT22;3968;51.424;6.788;2023-02-01T01:00:32;6.90;99.90
7846;DHT22;3968;51.424;6.788;2023-02-01T01:02:57;6.90;99.90
7846;DHT22;3968;51.424;6.788;2023-02-01T01:05:23;6.90;99.90
7846;DHT22;3968;51.424;6.788;2023-02-01T01:07:49;6.90;99.90
7846;DHT22;3968;51.424;6.788;2023-02-01T01:10:15;6.90;99.90
7846;DHT22;3968;51.424;6.788;2023-02-01T01:12:40;6.90;99.90
7846;DHT22;3968;51.424;6.788;2023-02-01T01:15:07;7.00;99.90
7846;DHT22;3968;51.424;6.788;2023-02-01T01:17:33;7.00;99.90
7846;DHT22;3968;51.424;6.788;2023-02-01T01:19:58;7.00;99.90
7846;DHT22;3968;51.424;6.788;2023-02-01T01:22:24;7.00;99.90
7846;DHT22;3968;51.424;6.788;2023-02-01T01:24:49;7.10;99.90
7846;DHT22;3968;51.424;6.788;2023-02-01T01:27:15;7.00;99.90
7846;DHT22;3968;51.424;6.788;2023-02-01T01:29:41;7.10;99.90
7846;DHT22;3968;51.424;6.788;2023-02-01T01:32:06;7.10;99.90
7846;DHT22;3968;51.424;6.788;2023-02-01T01:34:32;7.10;99.90
7846;DHT22;3968;51.424;6.788;2023-02-01T01:36:57;7.10;99.90
7846;DHT22;3968;51.424;6.788;2023-02-01T01:39:23;7.10;99.90
7846;DHT22;3968;51.424;6.788;2023-02-01T01:41:49;7.10;99.90
7846;DHT22;3968;51.424;6.788;2023-02-01T01:47:17;7.10;99.90
7846;DHT22;3968;51.424;6.788;2023-02-01T01:49:43;7.10;99.90
7846;DHT22;3968;51.424;6.788;2023-02-01T01:52:09;7.00;99.90
7846;DHT22;3968;51.424;6.788;2023-02-01T01:54:40;7.00;99.90
7846;DHT22;3968;51.424;6.788;2023-02-01T01:57:14;7.00;99.90
7846;DHT22;3968;51.424;6.788;2023-02-01T01:59:42;7.00;99.90
7846;DHT22;3968;51.424;6.788;2023-02-01T02:02:09;6.90;99.90
7846;DHT22;3968;51.424;6.788;2023-02-01T02:04:35;7.00;99.90
7846;DHT22;3968;51.424;6.788;2023-02-01T02:07:05;6.90;99.90
7846;DHT22;3968;51.424;6.788;2023-02-01T02:09:31;6.90;99.90
7846;DHT22;3968;51.424;6.788;2023-02-01T02:11:57;6.80;99.90
7846;DHT22;3968;51.424;6.788;2023-02-01T02:14:23;6.90;99.90
7846;DHT22;3968;51.424;6.788;2023-02-01T02:17:03;6.80;99.90
7846;DHT22;3968;51.424;6.788;2023-02-01T02:20:16;6.80;99.90
7846;DHT22;3968;51.424;6.788;2023-02-01T02:22:33;6.80;99.90
7846;DHT22;3968;51.424;6.788;2023-02-01T02:34:34;6.70;99.90
7846;DHT22;3968;51.424;6.788;2023-02-01T02:40:11;6.60;99.90
7846;DHT22;3968;51.424;6.788;2023-02-01T02:42:48;6.60;99.90
7846;DHT22;3968;51.424;6.788;2023-02-01T02:45:41;6.50;99.90
7846;DHT22;3968;51.424;6.788;2023-02-01T02:48:42;6.50;99.90
7846;DHT22;3968;51.424;6.788;2023-02-01T02:51:14;6.50;99.90
7846;DHT22;3968;51.424;6.788;2023-02-01T02:54:21;6.40;99.90
7846;DHT22;3968;51.424;6.788;2023-02-01T02:57:09;6.30;99.90
7846;DHT22;3968;51.424;6.788;2023-02-01T02:59:55;6.30;99.90
7846;DHT22;3968;51.424;6.788;2023-02-01T03:02:41;6.40;99.90
7846;DHT22;3968;51.424;6.788;2023-02-01T03:05:25;6.40;99.90
7846;DHT22;3968;51.424;6.788;2023-02-01T03:08:10;6.30;99.90
7846;DHT22;3968;51.424;6.788;2023-02-01T03:11:24;6.40;99.90
7846;DHT22;3968;51.424;6.788;2023-02-01T03:13:56;6.30;99.90
7846;DHT22;3968;51.424;6.788;2023-02-01T03:16:33;6.30;99.90
7846;DHT22;3968;51.424;6.788;2023-02-01T03:19:26;6.30;99.90
7846;DHT22;3968;51.424;6.788;2023-02-01T03:22:23;6.40;99.90
7846;DHT22;3968;51.424;6.788;2023-02-01T03:25:20;6.30;99.90
7846;DHT22;3968;51.424;6.788;2023-02-01T03:27:53;6.40;99.90
7846;DHT22;3968;51.424;6.788;2023-02-01T03:32:50;6.40;99.90
7846;DHT22;3968;51.424;6.788;2023-02-01T03:35:50;6.30;99.90
7846;DHT22;3968;51.424;6.788;2023-02-01T03:38:25;6.40;99.90
7846;DHT22;3968;51.424;6.788;2023-02-01T03:43:58;6.40;99.90
7846;DHT22;3968;51.424;6.788;2023-02-01T03:46:39;6.30;99.90
7846;DHT22;3968;51.424;6.788;2023-02-01T03:49:09;6.30;99.90
7846;DHT22;3968;51.424;6.788;2023-02-01T03:51:38;6.30;99.90
7846;DHT22;3968;51.424;6.788;2023-02-01T03:54:07;6.40;99.90
7846;DHT22;3968;51.424;6.788;2023-02-01T03:56:37;6.40;99.90
7846;DHT22;3968;51.424;6.788;2023-02-01T03:59:04;6.40;99.90
7846;DHT22;3968;51.424;6.788;2023-02-01T04:01:30;6.50;99.90
7846;DHT22;3968;51.424;6.788;2023-02-01T04:03:57;6.50;99.90
7846;DHT22;3968;51.424;6.788;2023-02-01T04:06:23;6.50;99.90
7846;DHT22;3968;51.424;6.788;2023-02-01T04:08:49;6.50;99.90
7846;DHT22;3968;51.424;6.788;2023-02-01T04:11:15;6.40;99.90
7846;DHT22;3968;51.424;6.788;2023-02-01T04:13:41;6.50;99.90
7846;DHT22;3968;51.424;6.788;2023-02-01T04:16:06;6.50;99.90
7846;DHT22;3968;51.424;6.788;2023-02-01T04:18:32;6.50;99.90
7846;DHT22;3968;51.424;6.788;2023-02-01T04:20:57;6.40;99.90
7846;DHT22;3968;51.424;6.788;2023-02-01T04:23:23;6.50;99.90
7846;DHT22;3968;51.424;6.788;2023-02-01T04:25:49;6.50;99.90
7846;DHT22;3968;51.424;6.788;2023-02-01T04:28:14;6.40;99.90
7846;DHT22;3968;51.424;6.788;2023-02-01T04:30:40;6.40;99.90
7846;DHT22;3968;51.424;6.788;2023-02-01T04:33:05;6.40;99.90
7846;DHT22;3968;51.424;6.788;2023-02-01T04:35:31;6.40;99.90
7846;DHT22;3968;51.424;6.788;2023-02-01T04:37:57;6.50;99.90
7846;DHT22;3968;51.424;6.788;2023-02-01T04:40:22;6.40;99.90
7846;DHT22;3968;51.424;6.788;2023-02-01T04:42:48;6.40;99.90
7846;DHT22;3968;51.424;6.788;2023-02-01T04:45:13;6.40;99.90
7846;DHT22;3968;51.424;6.788;2023-02-01T04:47:39;6.40;99.90
7846;DHT22;3968;51.424;6.788;2023-02-01T04:50:05;6.40;99.90
7846;DHT22;3968;51.424;6.788;2023-02-01T04:52:32;6.40;99.90
7846;DHT22;3968;51.424;6.788;2023-02-01T04:54:58;6.40;99.90
7846;DHT22;3968;51.424;6.788;2023-02-01T04:57:25;6.40;99.90
7846;DHT22;3968;51.424;6.788;2023-02-01T04:59:51;6.40;99.90
7846;DHT22;3968;51.424;6.788;2023-02-01T05:02:16;6.40;99.90
7846;DHT22;3968;51.424;6.788;2023-02-01T05:04:42;6.40;99.90
7846;DHT22;3968;51.424;6.788;2023-02-01T05:07:08;6.40;99.90
7846;DHT22;3968;51.424;6.788;2023-02-01T05:09:33;6.40;99.90
7846;DHT22;3968;51.424;6.788;2023-02-01T05:11:59;6.30;99.90
7846;DHT22;3968;51.424;6.788;2023-02-01T05:14:43;6.30;99.90
7846;DHT22;3968;51.424;6.788;2023-02-01T05:17:08;6.40;99.90
7846;DHT22;3968;51.424;6.788;2023-02-01T05:19:34;6.40;99.90
7846;DHT22;3968;51.424;6.788;2023-02-01T05:22:00;6.30;99.90
7846;DHT22;3968;51.424;6.788;2023-02-01T05:24:25;6.30;99.90
7846;DHT22;3968;51.424;6.788;2023-02-01T05:26:52;6.30;99.90
7846;DHT22;3968;51.424;6.788;2023-02-01T05:29:18;6.30;99.90
7846;DHT22;3968;51.424;6.788;2023-02-01T05:31:45;6.30;99.90
7846;DHT22;3968;51.424;6.788;2023-02-01T05:34:11;6.30;99.90
7846;DHT22;3968;51.424;6.788;2023-02-01T05:36:37;6.30;99.90
7846;DHT22;3968;51.424;6.788;2023-02-01T05:39:03;6.30;99.90
7846;DHT22;3968;51.424;6.788;2023-02-01T05:41:28;6.30;99.90
7846;DHT22;3968;51.424;6.788;2023-02-01T05:43:54;6.30;99.90
7846;DHT22;3968;51.424;6.788;2023-02-01T05:46:20;6.20;99.90
7846;DHT22;3968;51.424;6.788;2023-02-01T05:48:45;6.20;99.90
7846;DHT22;3968;51.424;6.788;2023-02-01T05:51:11;6.20;99.90
7846;DHT22;3968;51.424;6.788;2023-02-01T05:53:37;6.20;99.90
7846;DHT22;3968;51.424;6.788;2023-02-01T05:56:03;6.10;99.90
7846;DHT22;3968;51.424;6.788;2023-02-01T05:58:29;6.10;99.90
7846;DHT22;3968;51.424;6.788;2023-02-01T06:00:55;6.10;99.90
7846;DHT22;3968;51.424;6.788;2023-02-01T06:03:21;6.10;99.90
7846;DHT22;3968;51.424;6.788;2023-02-01T06:05:47;6.10;99.90
7846;DHT22;3968;51.424;6.788;2023-02-01T06:08:13;6.20;99.90
7846;DHT22;3968;51.424;6.788;2023-02-01T06:10:39;6.20;99.90
7846;DHT22;3968;51.424;6.788;2023-02-01T06:13:05;6.20;99.90
7846;DHT22;3968;51.424;6.788;2023-02-01T06:15:31;6.20;99.90
7846;DHT22;3968;51.424;6.788;2023-02-01T06:17:57;6.20;99.90
7846;DHT22;3968;51.424;6.788;2023-02-01T06:20:23;6.20;99.90
7846;DHT22;3968;51.424;6.788;2023-02-01T06:22:49;6.10;99.90
7846;DHT22;3968;51.424;6.788;2023-02-01T06:25:14;6.20;99.90
7846;DHT22;3968;51.424;6.788;2023-02-01T06:27:42;6.20;99.90
7846;DHT22;3968;51.424;6.788;2023-02-01T06:30:08;6.20;99.90
7846;DHT22;3968;51.424;6.788;2023-02-01T06:32:33;6.30;99.90
7846;DHT22;3968;51.424;6.788;2023-02-01T06:34:59;6.30;99.90
7846;DHT22;3968;51.424;6.788;2023-02-01T06:37:26;6.30;99.90
7846;DHT22;3968;51.424;6.788;2023-02-01T06:39:52;6.40;99.90
7846;DHT22;3968;51.424;6.788;2023-02-01T06:42:18;6.40;99.90
7846;DHT22;3968;51.424;6.788;2023-02-01T06:44:44;6.40;99.90
7846;DHT22;3968;51.424;6.788;2023-02-01T06:47:09;6.40;99.90
7846;DHT22;3968;51.424;6.788;2023-02-01T06:49:35;6.40;99.90
7846;DHT22;3968;51.424;6.788;2023-02-01T06:52:00;6.40;99.90
7846;DHT22;3968;51.424;6.788;2023-02-01T06:54:27;6.50;99.90
7846;DHT22;3968;51.424;6.788;2023-02-01T06:56:53;6.50;99.90
7846;DHT22;3968;51.424;6.788;2023-02-01T06:59:18;6.50;99.90
7846;DHT22;3968;51.424;6.788;2023-02-01T07:01:44;6.50;99.90
7846;DHT22;3968;51.424;6.788;2023-02-01T07:04:12;6.50;99.90
7846;DHT22;3968;51.424;6.788;2023-02-01T07:06:39;6.50;99.90
7846;DHT22;3968;51.424;6.788;2023-02-01T07:09:05;6.50;99.90
7846;DHT22;3968;51.424;6.788;2023-02-01T07:11:30;6.50;99.90
7846;DHT22;3968;51.424;6.788;2023-02-01T07:13:57;6.50;99.90
7846;DHT22;3968;51.424;6.788;2023-02-01T07:16:23;6.60;99.90
7846;DHT22;3968;51.424;6.788;2023-02-01T07:18:50;6.60;99.90
7846;DHT22;3968;51.424;6.788;2023-02-01T07:21:16;6.60;99.90
7846;DHT22;3968;51.424;6.788;2023-02-01T07:23:42;6.60;99.90
7846;DHT22;3968;51.424;6.788;2023-02-01T07:26:11;6.60;99.90
7846;DHT22;3968;51.424;6.788;2023-02-01T07:28:38;6.70;99.90
7846;DHT22;3968;51.424;6.788;2023-02-01T07:31:05;6.70;99.90
7846;DHT22;3968;51.424;6.788;2023-02-01T07:33:31;6.70;99.90
7846;DHT22;3968;51.424;6.788;2023-02-01T07:35:56;6.70;99.90
7846;DHT22;3968;51.424;6.788;2023-02-01T07:38:22;6.70;99.90
7846;DHT22;3968;51.424;6.788;2023-02-01T07:40:49;6.70;99.90
7846;DHT22;3968;51.424;6.788;2023-02-01T07:43:15;6.70;99.90
7846;DHT22;3968;51.424;6.788;2023-02-01T07:45:41;6.70;99.90
7846;DHT22;3968;51.424;6.788;2023-02-01T07:48:07;6.70;99.90
7846;DHT22;3968;51.424;6.788;2023-02-01T07:50:32;6.70;99.90
7846;DHT22;3968;51.424;6.788;2023-02-01T07:52:59;6.70;99.90
7846;DHT22;3968;51.424;6.788;2023-02-01T07:55:26;6.70;99.90
7846;DHT22;3968;51.424;6.788;2023-02-01T07:57:52;6.70;99.90
7846;DHT22;3968;51.424;6.788;2023-02-01T08:00:18;6.70;99.90
7846;DHT22;3968;51.424;6.788;2023-02-01T08:03:04;6.70;99.90
7846;DHT22;3968;51.424;6.788;2023-02-01T08:05:29;6.70;99.90
7846;DHT22;3968;51.424;6.788;2023-02-01T08:07:55;6.80;99.90
7846;DHT22;3968;51.424;6.788;2023-02-01T08:10:21;6.80;99.90
7846;DHT22;3968;51.424;6.788;2023-02-01T08:12:46;6.80;99.90
7846;DHT22;3968;51.424;6.788;2023-02-01T08:15:14;6.80;99.90
7846;DHT22;3968;51.424;6.788;2023-02-01T08:17:45;6.80;99.90
7846;DHT22;3968;51.424;6.788;2023-02-01T08:20:11;6.90;99.90
7846;DHT22;3968;51.424;6.788;2023-02-01T08:22:38;6.90;99.90
7846;DHT22;3968;51.424;6.788;2023-02-01T08:25:05;7.00;99.90
7846;DHT22;3968;51.424;6.788;2023-02-01T08:27:32;7.00;99.90
7846;DHT22;3968;51.424;6.788;2023-02-01T08:29:58;7.00;99.90
7846;DHT22;3968;51.424;6.788;2023-02-01T08:32:24;7.10;99.90
7846;DHT22;3968;51.424;6.788;2023-02-01T08:34:50;7.10;99.90
7846;DHT22;3968;51.424;6.788;2023-02-01T08:37:16;7.10;99.90
7846;DHT22;3968;51.424;6.788;2023-02-01T08:39:41;7.10;99.90
7846;DHT22;3968;51.424;6.788;2023-02-01T08:42:09;7.10;99.90
7846;DHT22;3968;51.424;6.788;2023-02-01T08:44:54;7.10;99.90
7846;DHT22;3968;51.424;6.788;2023-02-01T08:47:19;7.10;99.90
7846;DHT22;3968;51.424;6.788;2023-02-01T08:49:45;7.10;99.90
7846;DHT22;3968;51.424;6.788;2023-02-01T08:52:11;7.10;99.90
7846;DHT22;3968;51.424;6.788;2023-02-01T08:54:37;7.00;99.90
7846;DHT22;3968;51.424;6.788;2023-02-01T08:57:02;7.00;99.90
7846;DHT22;3968;51.424;6.788;2023-02-01T08:59:29;7.10;99.90
7846;DHT22;3968;51.424;6.788;2023-02-01T09:01:55;7.10;99.90
7846;DHT22;3968;51.424;6.788;2023-02-01T09:04:21;7.20;99.90
7846;DHT22;3968;51.424;6.788;2023-02-01T09:06:47;7.10;99.90
7846;DHT22;3968;51.424;6.788;2023-02-01T09:09:12;7.20;99.90
7846;DHT22;3968;51.424;6.788;2023-02-01T09:11:38;7.20;99.90
7846;DHT22;3968;51.424;6.788;2023-02-01T09:14:03;7.20;99.90
7846;DHT22;3968;51.424;6.788;2023-02-01T09:16:29;7.10;99.90
7846;DHT22;3968;51.424;6.788;2023-02-01T09:18:55;7.20;99.90
7846;DHT22;3968;51.424;6.788;2023-02-01T09:21:20;7.10;99.90
7846;DHT22;3968;51.424;6.788;2023-02-01T09:23:46;7.10;99.90
7846;DHT22;3968;51.424;6.788;2023-02-01T09:26:14;7.10;99.90
7846;DHT22;3968;51.424;6.788;2023-02-01T09:28:39;7.10;99.90
7846;DHT22;3968;51.424;6.788;2023-02-01T09:31:05;7.10;99.90
7846;DHT22;3968;51.424;6.788;2023-02-01T09:33:31;7.10;99.90
7846;DHT22;3968;51.424;6.788;2023-02-01T09:35:58;7.20;99.90
7846;DHT22;3968;51.424;6.788;2023-02-01T09:38:24;7.20;99.90
7846;DHT22;3968;51.424;6.788;2023-02-01T09:40:51;7.20;99.90
7846;DHT22;3968;51.424;6.788;2023-02-01T09:46:24;7.40;99.90
7846;DHT22;3968;51.424;6.788;2023-02-01T09:48:54;7.40;99.90
7846;DHT22;3968;51.424;6.788;2023-02-01T09:51:35;7.50;99.90
7846;DHT22;3968;51.424;6.788;2023-02-01T09:54:20;7.40;99.90
7846;DHT22;3968;51.424;6.788;2023-02-01T09:59:41;7.50;99.90
7846;DHT22;3968;51.424;6.788;2023-02-01T10:02:20;7.50;99.90
7846;DHT22;3968;51.424;6.788;2023-02-01T10:04:47;7.50;99.90
7846;DHT22;3968;51.424;6.788;2023-02-01T10:10:30;7.50;99.90
7846;DHT22;3968;51.424;6.788;2023-02-01T10:26:37;8.00;99.90
7846;DHT22;3968;51.424;6.788;2023-02-01T10:29:15;8.00;99.90
7846;DHT22;3968;51.424;6.788;2023-02-01T10:31:41;8.00;99.90
7846;DHT22;3968;51.424;6.788;2023-02-01T10:34:26;8.00;99.90
7846;DHT22;3968;51.424;6.788;2023-02-01T10:39:54;7.80;99.90
7846;DHT22;3968;51.424;6.788;2023-02-01T10:42:25;7.80;99.90
7846;DHT22;3968;51.424;6.788;2023-02-01T10:44:51;7.70;99.90
7846;DHT22;3968;51.424;6.788;2023-02-01T10:47:18;7.70;99.90
7846;DHT22;3968;51.424;6.788;2023-02-01T10:49:50;7.70;99.90
7846;DHT22;3968;51.424;6.788;2023-02-01T10:52:29;7.80;99.90
7846;DHT22;3968;51.424;6.788;2023-02-01T10:54:56;7.70;99.90
7846;DHT22;3968;51.424;6.788;2023-02-01T10:57:33;7.70;99.90
7846;DHT22;3968;51.424;6.788;2023-02-01T11:00:03;7.80;99.90
7846;DHT22;3968;51.424;6.788;2023-02-01T11:02:43;7.80;99.90
7846;DHT22;3968;51.424;6.788;2023-02-01T11:05:10;7.80;99.90
7846;DHT22;3968;51.424;6.788;2023-02-01T11:07:39;7.90;99.90
7846;DHT22;3968;51.424;6.788;2023-02-01T11:10:05;8.10;99.90
7846;DHT22;3968;51.424;6.788;2023-02-01T11:12:32;8.10;99.90
7846;DHT22;3968;51.424;6.788;2023-02-01T11:15:13;8.20;99.90
7846;DHT22;3968;51.424;6.788;2023-02-01T11:17:44;8.20;99.90
7846;DHT22;3968;51.424;6.788;2023-02-01T11:20:16;8.20;99.90
7846;DHT22;3968;51.424;6.788;2023-02-01T11:22:55;8.10;99.90
7846;DHT22;3968;51.424;6.788;2023-02-01T11:25:22;8.10;99.90
7846;DHT22;3968;51.424;6.788;2023-02-01T11:27:53;8.10;99.90
7846;DHT22;3968;51.424;6.788;2023-02-01T11:32:59;8.10;99.90
7846;DHT22;3968;51.424;6.788;2023-02-01T11:35:28;8.10;99.90
7846;DHT22;3968;51.424;6.788;2023-02-01T11:37:56;8.00;99.90
7846;DHT22;3968;51.424;6.788;2023-02-01T11:40:28;8.10;99.90
7846;DHT22;3968;51.424;6.788;2023-02-01T11:43:00;8.20;99.90
7846;DHT22;3968;51.424;6.788;2023-02-01T11:45:33;8.20;99.90
7846;DHT22;3968;51.424;6.788;2023-02-01T11:48:14;8.10;99.90
7846;DHT22;3968;51.424;6.788;2023-02-01T11:51:02;8.10;99.90
7846;DHT22;3968;51.424;6.788;2023-02-01T11:54:03;8.00;99.90
7846;DHT22;3968;51.424;6.788;2023-02-01T11:57:03;8.00;99.90
7846;DHT22;3968;51.424;6.788;2023-02-01T12:16:17;7.90;99.90
7846;DHT22;3968;51.424;6.788;2023-02-01T12:19:30;7.90;99.90
7846;DHT22;3968;51.424;6.788;2023-02-01T12:29:58;7.90;99.90
7846;DHT22;3968;51.424;6.788;2023-02-01T12:35:48;7.90;99.90
7846;DHT22;3968;51.424;6.788;2023-02-01T12:44:08;7.90;99.90
7846;DHT22;3968;51.424;6.788;2023-02-01T12:46:40;7.90;99.90
7846;DHT22;3968;51.424;6.788;2023-02-01T12:49:45;8.00;99.90
7846;DHT22;3968;51.424;6.788;2023-02-01T12:52:23;8.00;99.90
7846;DHT22;3968;51.424;6.788;2023-02-01T12:57:46;8.10;99.90
7846;DHT22;3968;51.424;6.788;2023-02-01T13:00:40;8.00;99.90
7846;DHT22;3968;51.424;6.788;2023-02-01T13:03:39;8.10;99.90
7846;DHT22;3968;51.424;6.788;2023-02-01T13:06:17;8.00;99.90
7846;DHT22;3968;51.424;6.788;2023-02-01T13:11:20;8.00;99.90
7846;DHT22;3968;51.424;6.788;2023-02-01T13:16:23;8.00;99.90
7846;DHT22;3968;51.424;6.788;2023-02-01T13:19:16;8.00;99.90
7846;DHT22;3968;51.424;6.788;2023-02-01T13:21:47;8.00;99.90
7846;DHT22;3968;51.424;6.788;2023-02-01T13:24:33;8.00;99.90
7846;DHT22;3968;51.424;6.788;2023-02-01T13:27:00;8.00;99.90
7846;DHT22;3968;51.424;6.788;2023-02-01T13:29:27;8.00;99.90
7846;DHT22;3968;51.424;6.788;2023-02-01T13:32:10;8.00;99.90
7846;DHT22;3968;51.424;6.788;2023-02-01T13:43:01;8.00;99.90
7846;DHT22;3968;51.424;6.788;2023-02-01T13:45:30;8.00;99.90
7846;DHT22;3968;51.424;6.788;2023-02-01T13:47:59;8.00;99.90
7846;DHT22;3968;51.424;6.788;2023-02-01T13:50:37;8.10;99.90
7846;DHT22;3968;51.424;6.788;2023-02-01T13:55:45;8.30;99.90
7846;DHT22;3968;51.424;6.788;2023-02-01T14:00:49;8.50;99.90
7846;DHT22;3968;51.424;6.788;2023-02-01T14:03:19;8.50;99.90
7846;DHT22;3968;51.424;6.788;2023-02-01T14:08:14;9.10;99.90
7846;DHT22;3968;51.424;6.788;2023-02-01T14:10:54;9.30;99.90
7846;DHT22;3968;51.424;6.788;2023-02-01T14:13:28;9.50;99.90
7846;DHT22;3968;51.424;6.788;2023-02-01T14:21:28;10.10;99.90
7846;DHT22;3968;51.424;6.788;2023-02-01T14:24:22;9.90;99.90
7846;DHT22;3968;51.424;6.788;2023-02-01T14:27:18;9.50;99.90
7846;DHT22;3968;51.424;6.788;2023-02-01T14:29:51;9.30;99.90
7846;DHT22;3968;51.424;6.788;2023-02-01T14:32:25;9.40;99.90
7846;DHT22;3968;51.424;6.788;2023-02-01T14:34:56;9.20;99.90
7846;DHT22;3968;51.424;6.788;2023-02-01T14:37:31;9.50;99.90
7846;DHT22;3968;51.424;6.788;2023-02-01T14:40:06;9.50;99.90
7846;DHT22;3968;51.424;6.788;2023-02-01T14:42:47;9.30;99.90
7846;DHT22;3968;51.424;6.788;2023-02-01T14:50:42;8.90;99.90
7846;DHT22;3968;51.424;6.788;2023-02-01T14:56:00;8.70;99.90
7846;DHT22;3968;51.424;6.788;2023-02-01T14:58:52;8.70;99.90
7846;DHT22;3968;51.424;6.788;2023-02-01T15:01:50;8.60;99.90
7846;DHT22;3968;51.424;6.788;2023-02-01T15:04:19;8.60;99.90
7846;DHT22;3968;51.424;6.788;2023-02-01T15:07:05;8.50;99.90
7846;DHT22;3968;51.424;6.788;2023-02-01T15:09:58;8.50;99.90
7846;DHT22;3968;51.424;6.788;2023-02-01T15:12:27;8.50;99.90
7846;DHT22;3968;51.424;6.788;2023-02-01T15:17:40;8.60;99.90
7846;DHT22;3968;51.424;6.788;2023-02-01T15:20:21;8.60;99.90
7846;DHT22;3968;51.424;6.788;2023-02-01T15:22:59;8.50;99.90
7846;DHT22;3968;51.424;6.788;2023-02-01T15:25:36;8.80;99.90
7846;DHT22;3968;51.424;6.788;2023-02-01T15:28:04;9.20;99.90
7846;DHT22;3968;51.424;6.788;2023-02-01T15:30:33;9.20;99.90
7846;DHT22;3968;51.424;6.788;2023-02-01T15:33:06;9.10;99.90
7846;DHT22;3968;51.424;6.788;2023-02-01T15:35:48;9.10;99.90
7846;DHT22;3968;51.424;6.788;2023-02-01T15:41:12;8.90;99.90
7846;DHT22;3968;51.424;6.788;2023-02-01T15:44:02;8.80;99.90
7846;DHT22;3968;51.424;6.788;2023-02-01T15:46:49;8.70;99.90
7846;DHT22;3968;51.424;6.788;2023-02-01T15:49:26;8.70;99.90
7846;DHT22;3968;51.424;6.788;2023-02-01T15:51:53;8.70;99.90
7846;DHT22;3968;51.424;6.788;2023-02-01T15:54:24;8.60;99.90
7846;DHT22;3968;51.424;6.788;2023-02-01T15:56:53;9.00;99.90
7846;DHT22;3968;51.424;6.788;2023-02-01T15:59:22;9.10;99.90
7846;DHT22;3968;51.424;6.788;2023-02-01T16:01:49;9.40;99.90
7846;DHT22;3968;51.424;6.788;2023-02-01T16:04:25;9.30;99.90
7846;DHT22;3968;51.424;6.788;2023-02-01T16:06:54;9.10;99.90
7846;DHT22;3968;51.424;6.788;2023-02-01T16:09:23;9.00;99.90
7846;DHT22;3968;51.424;6.788;2023-02-01T16:14:21;9.00;99.90
7846;DHT22;3968;51.424;6.788;2023-02-01T16:16:47;8.90;99.90
7846;DHT22;3968;51.424;6.788;2023-02-01T16:19:13;9.00;99.90
7846;DHT22;3968;51.424;6.788;2023-02-01T16:21:38;9.00;99.90
7846;DHT22;3968;51.424;6.788;2023-02-01T16:24:04;8.90;99.90
7846;DHT22;3968;51.424;6.788;2023-02-01T16:26:31;8.80;99.90
7846;DHT22;3968;51.424;6.788;2023-02-01T16:28:58;8.70;99.90
7846;DHT22;3968;51.424;6.788;2023-02-01T16:31:33;8.80;99.90
7846;DHT22;3968;51.424;6.788;2023-02-01T16:33:59;8.80;99.90
7846;DHT22;3968;51.424;6.788;2023-02-01T16:36:25;8.80;99.90
7846;DHT22;3968;51.424;6.788;2023-02-01T16:38:50;8.70;99.90
7846;DHT22;3968;51.424;6.788;2023-02-01T16:41:20;8.60;99.90
7846;DHT22;3968;51.424;6.788;2023-02-01T16:43:45;8.50;99.90
7846;DHT22;3968;51.424;6.788;2023-02-01T16:46:16;8.60;99.90
7846;DHT22;3968;51.424;6.788;2023-02-01T16:48:48;8.50;99.90
7846;DHT22;3968;51.424;6.788;2023-02-01T16:51:16;8.50;99.90
7846;DHT22;3968;51.424;6.788;2023-02-01T16:53:42;8.50;99.90
7846;DHT22;3968;51.424;6.788;2023-02-01T16:56:37;8.40;99.90
7846;DHT22;3968;51.424;6.788;2023-02-01T16:59:02;8.40;99.90
7846;DHT22;3968;51.424;6.788;2023-02-01T17:01:28;8.40;99.90
7846;DHT22;3968;51.424;6.788;2023-02-01T17:03:53;8.40;99.90
7846;DHT22;3968;51.424;6.788;2023-02-01T17:06:22;8.40;99.90
7846;DHT22;3968;51.424;6.788;2023-02-01T17:08:54;8.50;99.90
7846;DHT22;3968;51.424;6.788;2023-02-01T17:11:21;8.40;99.90
7846;DHT22;3968;51.424;6.788;2023-02-01T17:13:47;8.30;99.90
7846;DHT22;3968;51.424;6.788;2023-02-01T17:16:25;8.30;99.90
7846;DHT22;3968;51.424;6.788;2023-02-01T17:19:02;8.30;99.90
7846;DHT22;3968;51.424;6.788;2023-02-01T17:21:31;8.30;99.90
7846;DHT22;3968;51.424;6.788;2023-02-01T17:24:00;8.30;99.90
7846;DHT22;3968;51.424;6.788;2023-02-01T17:26:26;8.30;99.90
7846;DHT22;3968;51.424;6.788;2023-02-01T17:28:52;8.30;99.90
7846;DHT22;3968;51.424;6.788;2023-02-01T17:31:17;8.30;99.90
7846;DHT22;3968;51.424;6.788;2023-02-01T17:33:44;8.30;99.90
7846;DHT22;3968;51.424;6.788;2023-02-01T17:36:13;8.30;99.90
7846;DHT22;3968;51.424;6.788;2023-02-01T17:38:38;8.30;99.90
7846;DHT22;3968;51.424;6.788;2023-02-01T17:41:04;8.30;99.90
7846;DHT22;3968;51.424;6.788;2023-02-01T17:43:30;8.30;99.90
7846;DHT22;3968;51.424;6.788;2023-02-01T17:46:10;8.30;99.90
7846;DHT22;3968;51.424;6.788;2023-02-01T17:48:37;8.30;99.90
7846;DHT22;3968;51.424;6.788;2023-02-01T17:51:04;8.30;99.90
7846;DHT22;3968;51.424;6.788;2023-02-01T17:53:30;8.30;99.90
7846;DHT22;3968;51.424;6.788;2023-02-01T17:55:58;8.40;99.90
7846;DHT22;3968;51.424;6.788;2023-02-01T17:58:24;8.30;99.90
7846;DHT22;3968;51.424;6.788;2023-02-01T18:00:52;8.30;99.90
7846;DHT22;3968;51.424;6.788;2023-02-01T18:03:25;8.30;99.90
7846;DHT22;3968;51.424;6.788;2023-02-01T18:05:53;8.30;99.90
7846;DHT22;3968;51.424;6.788;2023-02-01T18:08:27;8.30;99.90
7846;DHT22;3968;51.424;6.788;2023-02-01T18:10:57;8.20;99.90
7846;DHT22;3968;51.424;6.788;2023-02-01T18:13:27;8.30;99.90
7846;DHT22;3968;51.424;6.788;2023-02-01T18:15:54;8.30;99.90
7846;DHT22;3968;51.424;6.788;2023-02-01T18:18:20;8.30;99.90
7846;DHT22;3968;51.424;6.788;2023-02-01T18:20:47;8.30;99.90
7846;DHT22;3968;51.424;6.788;2023-02-01T18:23:22;8.30;99.90
7846;DHT22;3968;51.424;6.788;2023-02-01T18:25:49;8.20;99.90
7846;DHT22;3968;51.424;6.788;2023-02-01T18:28:17;8.30;99.90
7846;DHT22;3968;51.424;6.788;2023-02-01T18:30:45;8.30;99.90
7846;DHT22;3968;51.424;6.788;2023-02-01T18:33:15;8.30;99.90
7846;DHT22;3968;51.424;6.788;2023-02-01T18:35:41;8.30;99.90
7846;DHT22;3968;51.424;6.788;2023-02-01T18:38:08;8.30;99.90
7846;DHT22;3968;51.424;6.788;2023-02-01T18:40:39;8.30;99.90
7846;DHT22;3968;51.424;6.788;2023-02-01T18:43:09;8.30;99.90
7846;DHT22;3968;51.424;6.788;2023-02-01T18:45:38;8.30;99.90
7846;DHT22;3968;51.424;6.788;2023-02-01T18:48:06;8.30;99.90